Time;durP1;ratioP1;P1;durP2;ratioP2;P2;SDS_P1;SDS_P2;PMS_P1;PMS_P2;Temp;Humidity;BMP_temperature;BMP_pressure;BME280_temperature;BME280_humidity;BME280_pressure;Samples;Min_cycle;Max_cycle;Signal;HPM_P1;HPM_P2
2023/02/24 00:01:23;;;;;;;18.80;14.30;;;;;;;;;;4917425;29;20210;-78
2023/02/24 00:03:51;;;;;;;22.57;16.63;;;;;;;;;;4917240;29;20202;-78
2023/02/24 00:06:18;;;;;;;21.57;15.37;;;;;;;;;;4917440;29;20244;-79
2023/02/24 00:08:46;;;;;;;24.97;20.20;;;;;;;;;;4917335;29;20296;-78
2023/02/24 00:11:14;;;;;;;22.93;15.80;;;;;;;;;;4917744;29;20208;-78
2023/02/24 00:13:45;;;;;;;23.00;16.70;;;;;;;;;;4936765;29;20208;-78
2023/02/24 00:16:15;;;;;;;23.57;16.87;;;;;;;;;;4935782;29;20231;-78
2023/02/24 00:18:42;;;;;;;19.77;14.03;;;;;;;;;;4935398;29;20266;-78
2023/02/24 00:21:12;;;;;;;20.40;14.47;;;;;;;;;;4935900;29;20299;-78
2023/02/24 00:23:40;;;;;;;20.93;14.13;;;;;;;;;;4936053;29;20207;-78
2023/02/24 00:26:08;;;;;;;20.57;14.50;;;;;;;;;;4936543;29;20741;-79
2023/02/24 00:28:35;;;;;;;20.07;13.40;;;;;;;;;;4935758;29;20227;-78
2023/02/24 00:31:04;;;;;;;20.43;14.20;;;;;;;;;;4935927;29;20264;-79
2023/02/24 00:33:33;;;;;;;21.07;14.87;;;;;;;;;;4935577;29;20196;-78
2023/02/24 00:36:10;;;;;;;20.57;14.40;;;;;;;;;;4935652;29;20338;-78
2023/02/24 00:38:37;;;;;;;22.77;15.70;;;;;;;;;;4935748;29;20203;-79
2023/02/24 00:41:13;;;;;;;21.97;15.13;;;;;;;;;;4935826;29;20242;-78
2023/02/24 00:43:40;;;;;;;25.13;16.20;;;;;;;;;;4935593;29;20662;-78
2023/02/24 00:46:10;;;;;;;24.13;15.47;;;;;;;;;;4947739;29;20238;-79
2023/02/24 00:48:40;;;;;;;24.53;15.50;;;;;;;;;;4952461;29;20584;-79
2023/02/24 00:51:09;;;;;;;24.80;16.07;;;;;;;;;;4935376;29;20205;-78
2023/02/24 00:53:37;;;;;;;23.60;15.37;;;;;;;;;;4935434;29;20200;-79
2023/02/24 00:56:05;;;;;;;24.03;16.10;;;;;;;;;;4927295;29;21067;-79
2023/02/24 00:58:33;;;;;;;24.97;16.43;;;;;;;;;;4935234;29;20210;-78
2023/02/24 01:01:01;;;;;;;26.87;17.20;;;;;;;;;;4935409;29;20229;-79
2023/02/24 01:03:29;;;;;;;25.23;16.10;;;;;;;;;;4935691;29;20623;-79
2023/02/24 01:05:57;;;;;;;26.57;16.63;;;;;;;;;;4935224;29;20201;-79
2023/02/24 01:08:24;;;;;;;27.03;17.47;;;;;;;;;;4935155;29;20637;-78
2023/02/24 01:13:46;;;;;;;28.00;17.47;;;;;;;;;;4916128;29;20215;-79
2023/02/24 01:16:17;;;;;;;27.27;16.97;;;;;;;;;;4916208;29;20232;-79
2023/02/24 01:18:44;;;;;;;31.57;18.23;;;;;;;;;;4915563;29;20957;-78
2023/02/24 01:21:13;;;;;;;31.47;17.80;;;;;;;;;;4916502;29;20291;-78
2023/02/24 01:23:41;;;;;;;30.73;18.27;;;;;;;;;;4916456;29;20204;-78
2023/02/24 01:26:08;;;;;;;27.97;17.77;;;;;;;;;;4916226;29;20765;-79
2023/02/24 01:28:36;;;;;;;29.53;17.43;;;;;;;;;;4914874;29;20208;-78
2023/02/24 01:31:04;;;;;;;30.80;17.70;;;;;;;;;;4916046;29;20696;-77
2023/02/24 01:33:36;;;;;;;30.13;17.70;;;;;;;;;;4915751;29;20201;-78
2023/02/24 01:36:09;;;;;;;33.57;18.60;;;;;;;;;;4915727;29;20236;-80
2023/02/24 01:38:38;;;;;;;30.20;18.50;;;;;;;;;;4915703;29;20224;-78
2023/02/24 01:41:06;;;;;;;32.63;17.43;;;;;;;;;;4915595;29;20203;-78
2023/02/24 01:43:34;;;;;;;30.00;18.30;;;;;;;;;;4915896;29;20303;-78
2023/02/24 01:46:01;;;;;;;32.43;18.67;;;;;;;;;;4915836;29;20686;-78
2023/02/24 01:48:29;;;;;;;30.40;17.83;;;;;;;;;;4915673;29;20291;-78
2023/02/24 01:50:57;;;;;;;31.37;17.57;;;;;;;;;;4915755;29;20279;-78
2023/02/24 01:53:24;;;;;;;31.70;18.00;;;;;;;;;;4915692;29;20211;-78
2023/02/24 01:55:53;;;;;;;32.47;18.57;;;;;;;;;;4915381;29;20699;-79
2023/02/24 01:58:22;;;;;;;31.10;18.50;;;;;;;;;;4915583;29;20255;-79
2023/02/24 02:00:51;;;;;;;31.73;18.50;;;;;;;;;;4915278;29;20245;-79
2023/02/24 02:03:26;;;;;;;31.30;18.27;;;;;;;;;;4915803;29;20204;-78
2023/02/24 02:05:54;;;;;;;34.70;19.33;;;;;;;;;;4915470;29;20230;-78
2023/02/24 02:08:23;;;;;;;28.97;18.57;;;;;;;;;;4915268;29;20240;-79
2023/02/24 02:10:57;;;;;;;33.80;18.60;;;;;;;;;;4915285;29;20200;-79
2023/02/24 02:13:26;;;;;;;33.67;18.93;;;;;;;;;;4932299;29;20621;-78
2023/02/24 02:15:58;;;;;;;35.80;19.50;;;;;;;;;;4934291;29;20235;-79
2023/02/24 02:18:30;;;;;;;33.97;19.17;;;;;;;;;;4933726;29;20291;-79
2023/02/24 02:21:21;;;;;;;37.87;20.47;;;;;;;;;;4931946;29;20231;-77
2023/02/24 02:23:57;;;;;;;35.07;20.27;;;;;;;;;;4871229;29;20225;-79
2023/02/24 02:26:39;;;;;;;37.43;20.23;;;;;;;;;;4875369;29;20224;-78
2023/02/24 02:29:21;;;;;;;36.10;20.03;;;;;;;;;;4874876;29;20202;-79
2023/02/24 02:32:06;;;;;;;38.47;20.83;;;;;;;;;;4874924;29;20201;-77
2023/02/24 02:34:44;;;;;;;41.10;20.73;;;;;;;;;;4874970;29;20354;-78
2023/02/24 02:37:13;;;;;;;38.83;21.27;;;;;;;;;;4874884;29;20361;-79
2023/02/24 02:39:45;;;;;;;43.57;22.17;;;;;;;;;;4875082;29;20202;-79
2023/02/24 02:42:19;;;;;;;40.13;21.73;;;;;;;;;;4874605;29;20675;-78
2023/02/24 02:44:54;;;;;;;39.20;22.07;;;;;;;;;;4875631;29;20352;-79
2023/02/24 02:47:24;;;;;;;43.67;23.30;;;;;;;;;;4874902;29;20691;-79
2023/02/24 02:49:57;;;;;;;40.07;21.70;;;;;;;;;;4875054;29;20298;-78
2023/02/24 02:52:27;;;;;;;40.43;22.20;;;;;;;;;;4874895;29;20229;-78
2023/02/24 02:54:56;;;;;;;40.07;21.83;;;;;;;;;;4875343;29;20210;-79
2023/02/24 02:57:25;;;;;;;43.27;22.37;;;;;;;;;;4874408;29;20316;-79
2023/02/24 02:59:55;;;;;;;42.47;22.20;;;;;;;;;;4891513;29;20291;-79
2023/02/24 03:02:27;;;;;;;41.83;22.57;;;;;;;;;;4933535;29;20235;-79
2023/02/24 03:04:58;;;;;;;45.50;23.23;;;;;;;;;;4933883;29;20203;-80
2023/02/24 03:07:29;;;;;;;44.63;23.87;;;;;;;;;;4933805;29;20259;-78
2023/02/24 03:09:59;;;;;;;45.53;23.50;;;;;;;;;;4933820;29;20226;-79
2023/02/24 03:12:29;;;;;;;44.07;23.83;;;;;;;;;;4933335;29;20684;-78
2023/02/24 03:14:58;;;;;;;46.67;24.30;;;;;;;;;;4943477;29;20575;-79
2023/02/24 03:17:27;;;;;;;45.87;23.97;;;;;;;;;;4952457;29;20242;-79
2023/02/24 03:20:00;;;;;;;47.03;23.83;;;;;;;;;;4952082;29;20199;-79
2023/02/24 03:22:33;;;;;;;46.00;24.30;;;;;;;;;;4951924;29;20675;-78
2023/02/24 03:25:01;;;;;;;47.50;24.47;;;;;;;;;;4952702;29;20274;-79
2023/02/24 03:27:30;;;;;;;48.73;25.10;;;;;;;;;;4952151;29;20298;-80
2023/02/24 03:29:59;;;;;;;49.60;24.77;;;;;;;;;;4952251;29;20207;-79
2023/02/24 03:32:31;;;;;;;51.20;25.47;;;;;;;;;;4952646;29;20294;-79
2023/02/24 03:35:02;;;;;;;47.20;24.87;;;;;;;;;;4952420;29;20230;-79
2023/02/24 03:37:30;;;;;;;47.80;24.93;;;;;;;;;;4952755;29;20245;-79
2023/02/24 03:39:58;;;;;;;50.63;25.77;;;;;;;;;;4950722;29;20195;-79
2023/02/24 03:42:27;;;;;;;53.00;24.93;;;;;;;;;;4917160;29;20211;-79
2023/02/24 03:44:57;;;;;;;51.83;25.80;;;;;;;;;;4921954;29;20303;-79
2023/02/24 03:47:24;;;;;;;48.57;24.57;;;;;;;;;;4933342;29;20211;-78
2023/02/24 03:49:52;;;;;;;53.07;26.03;;;;;;;;;;4933640;29;20644;-79
2023/02/24 03:52:27;;;;;;;50.00;26.20;;;;;;;;;;4934945;29;20272;-79
2023/02/24 03:55:07;;;;;;;51.67;26.80;;;;;;;;;;4936407;29;20215;-79
2023/02/24 03:57:53;;;;;;;51.60;26.23;;;;;;;;;;4936737;29;20258;-79
2023/02/24 04:00:25;;;;;;;48.00;24.33;;;;;;;;;;4946137;29;20238;-79
2023/02/24 04:02:56;;;;;;;47.57;25.00;;;;;;;;;;4955583;29;20203;-79
2023/02/24 04:05:26;;;;;;;50.00;26.33;;;;;;;;;;4917535;29;20196;-79
2023/02/24 04:07:59;;;;;;;52.77;25.80;;;;;;;;;;4917658;29;20236;-79
2023/02/24 04:10:29;;;;;;;50.43;24.37;;;;;;;;;;4916813;29;20205;-79
2023/02/24 04:13:02;;;;;;;51.07;25.57;;;;;;;;;;4931494;29;20305;-79
2023/02/24 04:15:31;;;;;;;51.13;25.80;;;;;;;;;;4936693;29;20666;-79
2023/02/24 04:18:01;;;;;;;48.37;24.10;;;;;;;;;;4935545;29;20245;-79
2023/02/24 04:20:30;;;;;;;45.90;24.57;;;;;;;;;;4936000;29;20204;-79
2023/02/24 04:23:02;;;;;;;47.20;24.03;;;;;;;;;;4936465;29;20376;-79
2023/02/24 04:25:30;;;;;;;51.67;24.87;;;;;;;;;;4936131;29;20238;-80
2023/02/24 04:27:59;;;;;;;45.27;23.33;;;;;;;;;;4935861;29;20200;-79
2023/02/24 04:30:28;;;;;;;49.07;23.93;;;;;;;;;;4936484;29;20208;-78
2023/02/24 04:32:56;;;;;;;48.87;23.53;;;;;;;;;;4935892;29;20234;-79
2023/02/24 04:35:23;;;;;;;47.07;23.70;;;;;;;;;;4935682;29;20207;-78
2023/02/24 04:37:51;;;;;;;46.63;23.10;;;;;;;;;;4935448;29;20227;-79
2023/02/24 04:40:21;;;;;;;44.37;22.43;;;;;;;;;;4935605;29;20207;-79
2023/02/24 04:42:48;;;;;;;45.10;21.67;;;;;;;;;;4936037;29;20593;-79
2023/02/24 04:45:16;;;;;;;43.40;22.23;;;;;;;;;;4935986;29;20207;-79
2023/02/24 04:47:48;;;;;;;44.60;21.67;;;;;;;;;;4935391;29;20214;-79
2023/02/24 04:50:21;;;;;;;43.07;20.70;;;;;;;;;;4935845;29;20200;-78
2023/02/24 04:52:50;;;;;;;49.40;23.63;;;;;;;;;;4935469;29;20232;-79
2023/02/24 04:55:18;;;;;;;42.70;21.07;;;;;;;;;;4935205;29;20685;-79
2023/02/24 04:57:46;;;;;;;43.57;21.33;;;;;;;;;;4935382;29;20616;-79
2023/02/24 05:00:20;;;;;;;39.90;20.27;;;;;;;;;;4935809;29;20203;-80
2023/02/24 05:02:48;;;;;;;42.93;21.40;;;;;;;;;;4934969;29;20316;-79
2023/02/24 05:05:16;;;;;;;42.20;21.00;;;;;;;;;;4935472;29;20232;-79
2023/02/24 05:07:46;;;;;;;42.33;20.60;;;;;;;;;;4934688;29;20751;-79
2023/02/24 05:10:14;;;;;;;40.57;19.77;;;;;;;;;;4935317;29;20231;-79
2023/02/24 05:12:41;;;;;;;40.37;19.90;;;;;;;;;;4935229;29;20204;-79
2023/02/24 05:15:11;;;;;;;37.53;19.70;;;;;;;;;;4935383;29;20238;-78
2023/02/24 05:17:39;;;;;;;41.17;19.93;;;;;;;;;;4935004;29;20270;-79
2023/02/24 05:22:52;;;;;;;45.73;21.50;;;;;;;;;;4934863;29;20210;-78
2023/02/24 05:25:19;;;;;;;42.57;20.17;;;;;;;;;;4934767;29;20200;-79
2023/02/24 05:27:47;;;;;;;38.80;19.10;;;;;;;;;;4934926;29;20238;-79
2023/02/24 05:30:17;;;;;;;39.10;19.97;;;;;;;;;;4935004;29;20234;-79
2023/02/24 05:32:44;;;;;;;37.83;19.23;;;;;;;;;;4934928;29;20259;-80
2023/02/24 05:35:12;;;;;;;41.07;20.20;;;;;;;;;;4934645;29;20210;-78
2023/02/24 05:37:41;;;;;;;40.03;19.97;;;;;;;;;;4934685;29;20274;-79
2023/02/24 05:40:12;;;;;;;39.30;18.77;;;;;;;;;;4934593;29;20222;-79
2023/02/24 05:42:39;;;;;;;36.57;18.43;;;;;;;;;;4934769;29;20211;-79
2023/02/24 05:45:07;;;;;;;38.73;19.10;;;;;;;;;;4935201;29;20208;-79
2023/02/24 05:47:36;;;;;;;34.80;18.43;;;;;;;;;;4934507;29;20295;-79
2023/02/24 05:50:04;;;;;;;35.43;17.97;;;;;;;;;;4934540;29;20246;-79
2023/02/24 05:52:34;;;;;;;33.27;18.17;;;;;;;;;;4934193;29;20203;-79
2023/02/24 05:55:05;;;;;;;33.73;17.87;;;;;;;;;;4935046;29;20203;-79
2023/02/24 05:57:34;;;;;;;36.83;18.83;;;;;;;;;;4934948;29;20584;-79
2023/02/24 06:00:13;;;;;;;34.47;17.63;;;;;;;;;;4934507;29;20207;-79
2023/02/24 06:02:48;;;;;;;33.23;17.67;;;;;;;;;;4934877;29;20227;-79
2023/02/24 06:05:24;;;;;;;35.97;18.80;;;;;;;;;;4934228;29;20255;-80
2023/02/24 06:07:51;;;;;;;34.80;17.97;;;;;;;;;;4934285;29;20207;-79
2023/02/24 06:10:21;;;;;;;34.23;17.50;;;;;;;;;;4934859;29;20227;-78
2023/02/24 06:12:48;;;;;;;32.37;18.20;;;;;;;;;;4934515;29;20208;-79
2023/02/24 06:15:16;;;;;;;35.20;19.17;;;;;;;;;;4933489;29;20312;-79
2023/02/24 06:17:45;;;;;;;33.47;18.00;;;;;;;;;;4934154;29;20250;-79
2023/02/24 06:20:14;;;;;;;32.77;16.60;;;;;;;;;;4933765;29;20397;-79
2023/02/24 06:22:42;;;;;;;36.33;18.63;;;;;;;;;;4934109;29;20282;-79
2023/02/24 06:25:10;;;;;;;31.50;17.07;;;;;;;;;;4934274;29;20203;-79
2023/02/24 06:27:38;;;;;;;32.03;16.80;;;;;;;;;;4933977;29;20303;-78
2023/02/24 06:30:09;;;;;;;35.87;18.53;;;;;;;;;;4933790;29;20570;-79
2023/02/24 06:32:36;;;;;;;32.27;17.67;;;;;;;;;;4934599;29;20227;-79
2023/02/24 06:35:05;;;;;;;34.13;17.33;;;;;;;;;;4933830;29;20210;-79
2023/02/24 06:37:34;;;;;;;33.27;18.03;;;;;;;;;;4933859;29;20326;-79
2023/02/24 06:40:14;;;;;;;31.70;18.00;;;;;;;;;;4933954;29;20203;-79
2023/02/24 06:42:41;;;;;;;30.57;17.13;;;;;;;;;;4933977;29;20669;-78
2023/02/24 06:45:10;;;;;;;33.13;17.97;;;;;;;;;;4933789;29;20302;-79
2023/02/24 06:47:37;;;;;;;33.57;18.07;;;;;;;;;;4933933;29;20222;-78
2023/02/24 06:50:08;;;;;;;33.77;17.67;;;;;;;;;;4933230;29;20292;-78
2023/02/24 06:52:35;;;;;;;33.53;17.80;;;;;;;;;;4933614;29;20208;-79
2023/02/24 06:55:03;;;;;;;34.43;18.50;;;;;;;;;;4933859;29;20255;-79
2023/02/24 06:57:33;;;;;;;35.20;18.53;;;;;;;;;;4933407;29;20231;-80
2023/02/24 07:00:15;;;;;;;35.23;19.27;;;;;;;;;;4933416;29;20235;-79
2023/02/24 07:02:42;;;;;;;32.13;18.17;;;;;;;;;;4933576;29;20257;-79
2023/02/24 07:05:13;;;;;;;34.87;19.30;;;;;;;;;;4932980;29;20331;-79
2023/02/24 07:07:44;;;;;;;35.60;19.60;;;;;;;;;;4933642;29;20210;-79
2023/02/24 07:10:13;;;;;;;33.37;18.70;;;;;;;;;;4933885;29;20206;-79
2023/02/24 07:12:41;;;;;;;33.47;19.27;;;;;;;;;;4933644;29;20234;-79
2023/02/24 07:15:08;;;;;;;33.67;19.03;;;;;;;;;;4933688;29;20200;-79
2023/02/24 07:17:36;;;;;;;34.03;19.53;;;;;;;;;;4933490;29;20248;-77
2023/02/24 07:20:10;;;;;;;36.00;19.53;;;;;;;;;;4933560;29;20230;-79
2023/02/24 07:22:40;;;;;;;30.83;18.27;;;;;;;;;;4933593;29;20207;-79
2023/02/24 07:25:08;;;;;;;34.47;18.93;;;;;;;;;;4933658;29;20665;-79
2023/02/24 07:27:36;;;;;;;33.40;18.10;;;;;;;;;;4936251;29;20231;-79
2023/02/24 07:30:05;;;;;;;31.97;18.30;;;;;;;;;;4937140;29;20218;-79
2023/02/24 07:32:32;;;;;;;30.87;17.73;;;;;;;;;;4936328;29;20200;-79
2023/02/24 07:34:59;;;;;;;32.43;18.47;;;;;;;;;;4937139;29;20235;-79
2023/02/24 07:37:30;;;;;;;31.70;18.07;;;;;;;;;;4937222;29;20323;-79
2023/02/24 07:39:58;;;;;;;32.00;17.80;;;;;;;;;;4937480;29;20251;-78
2023/02/24 07:42:29;;;;;;;32.10;17.73;;;;;;;;;;4937021;29;20225;-79
2023/02/24 07:44:56;;;;;;;29.87;18.00;;;;;;;;;;4936901;29;20549;-79
2023/02/24 07:47:24;;;;;;;32.60;18.13;;;;;;;;;;4936666;29;20231;-79
2023/02/24 07:49:51;;;;;;;30.33;17.37;;;;;;;;;;4937295;29;20199;-79
2023/02/24 07:52:18;;;;;;;31.87;18.50;;;;;;;;;;4936625;29;20196;-78
2023/02/24 07:54:45;;;;;;;34.00;18.17;;;;;;;;;;4936870;29;20640;-78
2023/02/24 07:57:14;;;;;;;31.97;18.40;;;;;;;;;;4936975;29;20247;-79
2023/02/24 07:59:45;;;;;;;34.70;18.30;;;;;;;;;;4936081;29;20389;-79
2023/02/24 08:02:13;;;;;;;31.80;17.47;;;;;;;;;;4917456;29;20196;-80
2023/02/24 08:04:43;;;;;;;31.03;17.63;;;;;;;;;;4917980;29;20204;-79
2023/02/24 08:07:13;;;;;;;31.47;17.37;;;;;;;;;;4918211;29;20205;-79
2023/02/24 08:12:26;;;;;;;41.40;19.53;;;;;;;;;;4936424;29;20267;-80
2023/02/24 08:14:59;;;;;;;29.27;16.93;;;;;;;;;;4936765;29;20677;-79
2023/02/24 08:17:27;;;;;;;31.63;16.97;;;;;;;;;;4936279;29;20286;-79
2023/02/24 08:20:20;;;;;;;33.13;18.03;;;;;;;;;;4900553;28;20303;-80
2023/02/24 08:22:43;;;;;;;42.63;18.37;;;;;;;;;;4945215;28;21082;-80
2023/02/24 08:25:17;;;;;;;46.33;19.10;;;;;;;;;;4936256;29;20211;-79
2023/02/24 08:27:47;;;;;;;30.20;17.03;;;;;;;;;;4935118;29;20201;-79
2023/02/24 08:30:22;;;;;;;30.20;16.60;;;;;;;;;;4938479;29;20231;-77
2023/02/24 08:32:55;;;;;;;30.67;17.13;;;;;;;;;;4930359;29;20214;-78
2023/02/24 08:35:24;;;;;;;38.30;17.83;;;;;;;;;;4935761;29;20218;-78
2023/02/24 08:37:52;;;;;;;31.37;16.53;;;;;;;;;;4934109;29;20231;-77
2023/02/24 08:40:36;;;;;;;31.60;16.63;;;;;;;;;;4941818;29;20756;-78
2023/02/24 08:43:14;;;;;;;30.03;16.07;;;;;;;;;;4935182;28;20227;-77
2023/02/24 08:45:44;;;;;;;28.07;15.80;;;;;;;;;;4931793;29;20677;-78
2023/02/24 08:48:25;;;;;;;30.50;16.10;;;;;;;;;;4936410;29;20220;-79
2023/02/24 08:50:52;;;;;;;25.70;14.97;;;;;;;;;;4928725;29;20294;-78
2023/02/24 08:53:19;;;;;;;25.73;15.20;;;;;;;;;;4935981;28;20238;-79
2023/02/24 08:55:50;;;;;;;24.47;14.60;;;;;;;;;;4929441;29;20736;-78
2023/02/24 08:58:25;;;;;;;29.23;16.30;;;;;;;;;;4937611;29;20783;-79
2023/02/24 09:00:53;;;;;;;24.23;14.33;;;;;;;;;;4930058;29;20639;-78
2023/02/24 09:03:28;;;;;;;22.70;14.23;;;;;;;;;;4938413;29;20692;-78
2023/02/24 09:05:59;;;;;;;22.93;14.63;;;;;;;;;;4934517;29;20286;-77
2023/02/24 09:08:31;;;;;;;24.87;15.13;;;;;;;;;;4931675;29;20290;-78
2023/02/24 09:10:59;;;;;;;24.70;14.30;;;;;;;;;;4935937;29;20246;-77
2023/02/24 09:13:31;;;;;;;23.90;15.10;;;;;;;;;;4938384;29;20207;-79
2023/02/24 09:15:59;;;;;;;24.33;14.10;;;;;;;;;;4938892;29;20227;-78
2023/02/24 09:18:29;;;;;;;25.33;14.37;;;;;;;;;;4931004;29;20337;-78
2023/02/24 09:21:14;;;;;;;21.03;13.37;;;;;;;;;;4934370;29;20231;-78
2023/02/24 09:23:45;;;;;;;23.33;13.27;;;;;;;;;;4934785;29;20200;-77
2023/02/24 09:26:13;;;;;;;28.07;14.57;;;;;;;;;;4932069;29;20203;-80
2023/02/24 09:28:53;;;;;;;21.57;13.00;;;;;;;;;;4939061;29;20316;-80
2023/02/24 09:31:22;;;;;;;22.43;13.43;;;;;;;;;;4940423;29;20564;-80
2023/02/24 09:33:50;;;;;;;24.00;14.17;;;;;;;;;;4936883;29;20209;-79
2023/02/24 09:36:26;;;;;;;25.93;14.93;;;;;;;;;;4930172;29;20206;-82
2023/02/24 09:39:14;;;;;;;23.40;13.60;;;;;;;;;;4932880;29;20295;-79
2023/02/24 09:41:55;;;;;;;25.00;13.43;;;;;;;;;;4929680;29;20215;-80
2023/02/24 09:44:26;;;;;;;20.57;13.63;;;;;;;;;;4932727;29;20195;-79
2023/02/24 09:46:57;;;;;;;23.90;13.60;;;;;;;;;;4932288;29;20231;-79
2023/02/24 09:49:38;;;;;;;20.63;13.37;;;;;;;;;;4932836;29;20331;-78
2023/02/24 09:52:07;;;;;;;20.73;13.20;;;;;;;;;;4934616;29;20636;-80
2023/02/24 09:54:35;;;;;;;21.83;13.27;;;;;;;;;;4933603;29;20207;-77
2023/02/24 09:57:08;;;;;;;21.00;13.83;;;;;;;;;;4932837;29;20241;-77
2023/02/24 09:59:49;;;;;;;23.80;14.10;;;;;;;;;;4933152;29;20206;-77
2023/02/24 10:02:31;;;;;;;19.70;13.33;;;11.20;99.90;;;;;;4925587;29;20235;-77
2023/02/24 10:05:05;;;;;;;32.87;13.93;;;10.70;99.90;;;;;;4927152;29;20218;-77
2023/02/24 10:07:38;;;;;;;23.67;14.00;;;10.50;99.90;;;;;;4931857;29;20199;-78
2023/02/24 10:10:19;;;;;;;21.17;12.87;;;10.70;99.90;;;;;;4933123;29;20689;-81
2023/02/24 10:12:51;;;;;;;18.77;12.27;;;10.70;99.90;;;;;;4929939;29;20207;-81
2023/02/24 10:15:49;;;;;;;22.30;13.30;;;10.10;99.90;;;;;;4931341;29;20203;-81
2023/02/24 10:18:30;;;;;;;20.67;12.90;;;9.70;99.90;;;;;;4933557;29;20247;-81
2023/02/24 10:21:09;;;;;;;20.60;13.13;;;10.00;99.90;;;;;;4934408;29;20227;-81
2023/02/24 10:23:55;;;;;;;19.40;12.87;;;10.30;99.90;;;;;;4933648;29;20703;-80
2023/02/24 10:26:43;;;;;;;21.00;13.43;;;10.10;99.90;;;;;;4932835;29;20227;-80
2023/02/24 10:29:26;;;;;;;19.13;12.53;;;10.00;99.90;;;;;;4928975;29;20637;-79
2023/02/24 10:32:07;;;;;;;18.00;12.27;;;10.70;99.90;;;;;;4933273;29;20204;-81
2023/02/24 10:34:34;;;;;;;18.70;12.60;;;11.80;99.90;;;;;;4936177;29;20215;-81
2023/02/24 10:37:05;;;;;;;18.43;12.10;;;11.50;99.90;;;;;;4931961;29;20235;-83
2023/02/24 10:39:33;;;;;;;18.57;11.37;;;11.50;99.90;;;;;;4932041;29;20322;-83
2023/02/24 10:42:15;;;;;;;18.43;11.47;;;11.70;99.90;;;;;;4932939;29;20299;-83
2023/02/24 10:44:50;;;;;;;16.60;11.10;;;11.60;99.90;;;;;;4915199;29;20212;-85
2023/02/24 10:47:29;;;;;;;16.67;11.60;;;10.80;99.90;;;;;;4919393;29;20202;-78
2023/02/24 10:49:58;;;;;;;16.87;11.47;;;10.80;99.90;;;;;;4940733;29;20571;-82
2023/02/24 10:53:09;;;;;;;17.57;12.00;;;11.50;99.90;;;;;;4941015;28;20238;-82
2023/02/24 10:55:52;;;;;;;15.93;11.67;;;11.60;99.90;;;;;;4926857;29;20760;-80
2023/02/24 10:58:36;;;;;;;19.10;12.63;;;11.80;99.90;;;;;;4917591;28;20234;-80
2023/02/24 11:01:12;;;;;;;17.60;11.63;;;12.50;99.90;;;;;;4932344;29;20199;-81
2023/02/24 11:03:59;;;;;;;19.10;12.30;;;10.90;99.90;;;;;;4928168;29;20243;-82
2023/02/24 11:09:30;;;;;;;18.43;12.13;;;9.90;99.90;;;;;;4919002;29;20665;-82
2023/02/24 11:17:36;;;;;;;17.35;12.10;;;9.10;99.90;;;;;;4934868;29;20231;-80
2023/02/24 11:20:16;;;;;;;19.20;12.27;;;9.20;99.90;;;;;;4935542;29;20231;-82
2023/02/24 11:22:47;;;;;;;20.17;13.47;;;9.20;99.90;;;;;;4948036;29;20215;-82
2023/02/24 11:25:20;;;;;;;16.70;11.33;;;9.60;99.90;;;;;;4942054;29;20563;-81
2023/02/24 11:27:47;;;;;;;17.83;11.97;;;9.50;99.90;;;;;;4936064;29;20224;-81
2023/02/24 11:30:24;;;;;;;34.70;23.67;;;9.50;99.90;;;;;;4936560;29;20740;-82
2023/02/24 11:33:06;;;;;;;24.93;15.67;;;9.60;99.90;;;;;;4926797;29;20263;-81
2023/02/24 11:35:41;;;;;;;64.07;35.63;;;9.50;99.90;;;;;;4934731;29;20207;-82
2023/02/24 11:38:17;;;;;;;71.93;45.97;;;9.70;99.90;;;;;;4933103;29;20316;-82
2023/02/24 11:40:49;;;;;;;29.33;20.03;;;9.70;99.90;;;;;;4934454;29;20210;-82
2023/02/24 11:43:20;;;;;;;31.80;20.87;;;10.10;99.90;;;;;;4935810;29;20200;-81
2023/02/24 11:45:50;;;;;;;44.63;35.70;;;9.80;99.90;;;;;;4940248;29;20208;-80
2023/02/24 11:48:19;;;;;;;20.13;13.90;;;10.00;99.90;;;;;;4935534;29;20237;-82
2023/02/24 11:50:54;;;;;;;26.03;20.63;;;10.30;99.90;;;;;;4939182;29;20226;-81
2023/02/24 11:53:27;;;;;;;18.57;14.03;;;10.30;99.90;;;;;;4941889;28;20207;-80
2023/02/24 11:56:00;;;;;;;23.40;17.63;;;9.90;99.90;;;;;;4933404;29;20231;-82
2023/02/24 11:58:34;;;;;;;17.30;11.67;;;10.00;99.90;;;;;;4936775;29;20311;-85
2023/02/24 12:01:08;;;;;;;20.43;14.57;;;9.80;99.90;;;;;;4940485;29;20208;-84
2023/02/24 12:03:41;;;;;;;18.87;13.33;;;10.00;99.90;;;;;;4933857;29;20232;-83
2023/02/24 12:06:27;;;;;;;18.00;13.27;;;9.80;99.90;;;;;;4936833;29;20240;-82
2023/02/24 12:08:59;;;;;;;25.07;19.73;;;9.80;99.90;;;;;;4930547;29;20203;-81
2023/02/24 12:11:38;;;;;;;45.23;33.00;;;9.50;99.90;;;;;;4933528;29;20239;-81
2023/02/24 12:14:18;;;;;;;25.27;18.83;;;9.80;99.90;;;;;;4932319;29;20208;-80
2023/02/24 12:16:49;;;;;;;19.50;13.53;;;9.80;99.90;;;;;;4935270;29;20243;-81
2023/02/24 12:19:21;;;;;;;21.77;17.13;;;9.90;99.90;;;;;;4933455;29;20278;-81
2023/02/24 12:21:56;;;;;;;17.67;11.60;;;9.80;99.90;;;;;;4935020;29;20677;-77
2023/02/24 12:24:23;;;;;;;18.03;12.13;;;9.80;99.90;;;;;;4932701;29;20231;-81
2023/02/24 12:27:00;;;;;;;18.70;11.93;;;9.80;99.90;;;;;;4935024;29;20728;-81
2023/02/24 12:29:54;;;;;;;17.53;11.03;;;10.00;99.90;;;;;;4933968;29;20303;-79
2023/02/24 12:32:34;;;;;;;16.43;10.97;;;9.80;99.90;;;;;;4929328;29;20210;-80
2023/02/24 12:35:12;;;;;;;20.17;14.23;;;9.70;99.90;;;;;;4933519;29;20209;-78
2023/02/24 12:37:58;;;;;;;113.20;69.73;;;9.80;99.90;;;;;;4920718;29;20210;-80
2023/02/24 12:40:33;;;;;;;31.60;23.60;;;9.70;99.90;;;;;;4927603;29;20311;-81
2023/02/24 12:43:11;;;;;;;27.73;22.50;;;9.90;99.90;;;;;;4937218;29;20199;-80
2023/02/24 12:45:48;;;;;;;18.80;11.50;;;9.90;99.90;;;;;;4949508;29;20300;-79
2023/02/24 12:48:34;;;;;;;15.43;11.60;;;10.30;99.90;;;;;;4934810;29;20203;-81
2023/02/24 12:51:05;;;;;;;14.03;10.30;;;10.90;99.90;;;;;;4916778;29;20292;-79
2023/02/24 12:53:41;;;;;;;16.33;10.83;;;11.50;99.90;;;;;;4924292;29;20203;-79
2023/02/24 12:56:15;;;;;;;15.73;10.27;;;11.10;99.90;;;;;;4936248;29;20757;-79
2023/02/24 12:58:45;;;;;;;18.63;10.60;;;10.80;99.90;;;;;;4922862;29;20327;-79
2023/02/24 13:01:21;;;;;;;15.77;9.80;;;10.90;99.90;;;;;;4934579;29;20295;-79
2023/02/24 13:04:14;;;;;;;15.20;10.30;;;11.00;99.90;;;;;;4932099;29;20200;-79
2023/02/24 13:06:58;;;;;;;16.77;10.33;;;10.90;99.90;;;;;;4925838;29;20237;-79
2023/02/24 13:09:39;;;;;;;14.83;9.73;;;11.30;99.90;;;;;;4924754;29;20290;-79
2023/02/24 13:12:15;;;;;;;13.90;9.53;;;11.50;99.90;;;;;;4929365;29;20255;-79
2023/02/24 13:14:44;;;;;;;15.13;9.63;;;11.10;99.90;;;;;;4928758;29;20286;-79
2023/02/24 13:17:22;;;;;;;15.53;10.20;;;10.50;99.90;;;;;;4930078;29;20718;-80
2023/02/24 13:19:52;;;;;;;14.90;10.20;;;10.50;99.90;;;;;;4924102;29;20303;-78
2023/02/24 13:22:28;;;;;;;14.77;9.73;;;10.50;99.90;;;;;;4939426;29;20200;-79
2023/02/24 13:25:09;;;;;;;14.47;9.30;;;10.40;99.90;;;;;;4921412;29;20299;-78
2023/02/24 13:28:39;;;;;;;;;;;;;;;;;;;;;
2023/02/24 13:35:40;;;;;;;15.13;10.90;;;11.10;99.90;;;;;;4915054;29;20701;-78
2023/02/24 13:38:10;;;;;;;17.20;11.30;;;11.10;99.90;;;;;;4937555;29;20212;-79
2023/02/24 13:40:38;;;;;;;15.97;10.93;;;11.90;99.90;;;;;;4945615;29;20259;-79
2023/02/24 13:43:21;;;;;;;14.00;9.80;;;12.60;99.90;;;;;;4925280;29;20228;-79
2023/02/24 13:45:56;;;;;;;14.60;10.40;;;13.60;99.90;;;;;;4935369;29;20208;-79
2023/02/24 13:48:45;;;;;;;13.03;10.13;;;13.20;99.90;;;;;;4915708;29;20247;-79
2023/02/24 13:51:34;;;;;;;12.30;9.63;;;13.20;99.90;;;;;;4915000;29;20651;-78
2023/02/24 13:54:13;;;;;;;12.67;10.10;;;12.50;99.90;;;;;;4917238;29;20308;-79
2023/02/24 13:56:45;;;;;;;15.73;10.40;;;12.00;99.90;;;;;;4932168;29;20270;-79
2023/02/24 13:59:26;;;;;;;14.73;11.70;;;12.50;99.90;;;;;;4929695;29;20332;-78
2023/02/24 14:01:58;;;;;;;12.43;9.77;;;;;;;;;;4925292;29;20287;-79
2023/02/24 14:04:27;;;;;;;13.77;10.63;;;;;;;;;;4929702;29;20203;-79
2023/02/24 14:06:56;;;;;;;13.77;9.60;;;;;;;;;;4923365;29;20246;-79
2023/02/24 14:09:26;;;;;;;12.87;11.10;;;;;;;;;;4929419;29;20770;-79
2023/02/24 14:11:55;;;;;;;13.17;8.90;;;;;;;;;;4935991;29;20204;-78
2023/02/24 14:14:23;;;;;;;12.93;9.97;;;;;;;;;;4917485;29;20285;-78
2023/02/24 14:16:51;;;;;;;13.30;9.70;;;;;;;;;;4938339;29;20847;-78
2023/02/24 14:19:19;;;;;;;15.23;11.30;;;;;;;;;;4932471;29;20235;-79
2023/02/24 14:22:03;;;;;;;17.57;12.30;;;;;;;;;;4930115;29;20338;-79
2023/02/24 14:24:30;;;;;;;11.93;9.43;;;;;;;;;;4923788;29;20266;-79
2023/02/24 14:27:00;;;;;;;11.17;7.37;;;;;;;;;;4926041;29;20290;-80
2023/02/24 14:29:30;;;;;;;12.03;7.60;;;;;;;;;;4912750;29;20234;-78
2023/02/24 14:32:00;;;;;;;12.73;8.10;;;;;;;;;;4928175;29;20567;-78
2023/02/24 14:34:29;;;;;;;13.50;10.53;;;;;;;;;;4930562;29;20227;-79
2023/02/24 14:36:57;;;;;;;9.93;7.70;;;;;;;;;;4926778;29;20678;-79
2023/02/24 14:39:28;;;;;;;11.70;8.27;;;;;;;;;;4929742;29;20314;-79